Country
Station

 

Weather  for  Menado/Dr. Sam Ratulangi  -  Indonesia    Indonesia

  
27 °C (81 °F)
    
 
 

Current METAR for Menado/Dr. Sam Ratulangi is :

WAMM 192330Z 04002KT 9999 FEW023 27/23 Q1011 NOSIG

 

This is a report for Menado/Dr. Sam Ratulangi - Indonesia.
 
The report was made 24 minutes ago, at 23:30 UTC .
The wind was blowing at a speed of 1.0 meters per second (2.3 miles per hour) from northeast (040°).
 
The temperature was 27 °C (81 °F), with a dew-point at 23 °C (73 °F).
The temperature felt like 30 °C (86 °F).
 
The atmospheric pressure was 1011 hPa (29.85 inHg).
The relative humidity was 78.8%.
 
There were a few clouds at a height of 701 meters (2300 feet).
 
The overall visibility was greater than 10 kilometers (6.2 miles).
 

 
 
 
 

Country :   A   B   C   D   E   F   G   H   I   J   K   L   M   N   O   P   Q   R   S   T   U   V   W   Y   Z

 

Site Info  |  Disclaimer  |  Credits  |  Privacy
Contact us  |  Add to favorites
© 2013-2019 METARs - All rights reserved